TGW284 WIMM-OEMA
Flight info
| Callsign | TGW284 |
|---|---|
| Flight time | N/A |
| Altitude | 34000 |
| Route | MAIMU DCT MEMAK N563 XOKRO/N0493F360 N563 REXOD/N0485F380 L883 UMILA N569 TOKRA DCT ITRUX Y511 ELONU |
| Aircraft | B789/H-SDE1E2E3FGHIJ2J3J4J5M1RWXY/LB1D1 |
Departure
| Time | N/A |
|---|---|
| Airport | Kualanamu International Airport (WIMM) |
Arrival
| Time | 2026-04-24 19:32 |
|---|---|
| Airport | Prince Mohammad Bin Abdulaziz Airport (OEMA) |
| Time | Latitude | Longitude | Altitude | Speed | Heading |
|---|---|---|---|---|---|
| 2026-04-24 12:43 | 8.22005 | 88.17052 | 33856 ft | 500 kts | 294° |
| 2026-04-24 12:43 | 8.23450 | 88.13862 | 33857 ft | 500 kts | 294° |
| 2026-04-24 12:44 | 8.26345 | 88.07468 | 33854 ft | 501 kts | 294° |
| 2026-04-24 12:44 | 8.29238 | 88.01074 | 33855 ft | 501 kts | 294° |
| 2026-04-24 12:45 | 8.32132 | 87.94677 | 33856 ft | 501 kts | 294° |
| 2026-04-24 12:45 | 8.35023 | 87.88280 | 33859 ft | 501 kts | 294° |
| 2026-04-24 12:46 | 8.37916 | 87.81877 | 33857 ft | 501 kts | 294° |
| 2026-04-24 12:46 | 8.40808 | 87.75473 | 33859 ft | 501 kts | 294° |
| 2026-04-24 12:47 | 8.43698 | 87.69068 | 33857 ft | 500 kts | 294° |
| 2026-04-24 12:47 | 8.46417 | 87.63042 | 33859 ft | 500 kts | 294° |
| 2026-04-24 12:48 | 8.49302 | 87.56644 | 33860 ft | 500 kts | 294° |
| 2026-04-24 12:48 | 8.52182 | 87.50252 | 33859 ft | 499 kts | 294° |
| 2026-04-24 12:49 | 8.55061 | 87.43862 | 33861 ft | 500 kts | 294° |
| 2026-04-24 12:49 | 8.57937 | 87.37473 | 33856 ft | 499 kts | 294° |
| 2026-04-24 12:50 | 8.60812 | 87.31084 | 33859 ft | 499 kts | 294° |
| 2026-04-24 12:50 | 8.63687 | 87.24693 | 33860 ft | 500 kts | 294° |
| 2026-04-24 12:51 | 8.66563 | 87.18294 | 33863 ft | 500 kts | 294° |
| 2026-04-24 12:51 | 8.69437 | 87.11897 | 33863 ft | 500 kts | 294° |
| 2026-04-24 12:52 | 8.72311 | 87.05496 | 33864 ft | 501 kts | 294° |
| 2026-04-24 12:52 | 8.75193 | 86.99075 | 33861 ft | 502 kts | 294° |
| 2026-04-24 12:53 | 8.78076 | 86.92647 | 33861 ft | 502 kts | 294° |
| 2026-04-24 12:53 | 8.80959 | 86.86218 | 33862 ft | 502 kts | 294° |
| 2026-04-24 12:54 | 8.83837 | 86.79793 | 33864 ft | 502 kts | 293° |
| 2026-04-24 12:54 | 8.86698 | 86.73405 | 33862 ft | 502 kts | 293° |
| 2026-04-24 12:55 | 8.89575 | 86.66978 | 33861 ft | 501 kts | 293° |
| 2026-04-24 12:55 | 8.92450 | 86.60551 | 33863 ft | 502 kts | 293° |
| 2026-04-24 12:56 | 8.95324 | 86.54123 | 33858 ft | 501 kts | 293° |
| 2026-04-24 12:56 | 8.98193 | 86.47703 | 33858 ft | 501 kts | 293° |
| 2026-04-24 12:57 | 9.01064 | 86.41276 | 33862 ft | 500 kts | 293° |
| 2026-04-24 12:57 | 9.03928 | 86.34860 | 33861 ft | 500 kts | 293° |
| 2026-04-24 12:58 | 9.06784 | 86.28457 | 33862 ft | 499 kts | 293° |
| 2026-04-24 12:58 | 9.09639 | 86.22055 | 33865 ft | 499 kts | 293° |
| 2026-04-24 12:59 | 9.12490 | 86.15657 | 33868 ft | 499 kts | 293° |
| 2026-04-24 12:59 | 9.15342 | 86.09253 | 33867 ft | 499 kts | 293° |
| 2026-04-24 13:00 | 9.18197 | 86.02841 | 33864 ft | 500 kts | 293° |
| 2026-04-24 13:00 | 9.21033 | 85.96467 | 33865 ft | 500 kts | 293° |
| 2026-04-24 13:01 | 9.23885 | 85.90052 | 33866 ft | 500 kts | 293° |
| 2026-04-24 13:01 | 9.26765 | 85.83642 | 33854 ft | 501 kts | 294° |
| 2026-04-24 13:02 | 9.29777 | 85.77285 | 33859 ft | 500 kts | 294° |
| 2026-04-24 13:02 | 9.32702 | 85.70899 | 33860 ft | 500 kts | 294° |
| 2026-04-24 13:03 | 9.35673 | 85.64531 | 33860 ft | 500 kts | 294° |
| 2026-04-24 13:03 | 9.38616 | 85.58158 | 33859 ft | 500 kts | 294° |
| 2026-04-24 13:04 | 9.41573 | 85.51779 | 33858 ft | 500 kts | 294° |
| 2026-04-24 13:04 | 9.44526 | 85.45397 | 33865 ft | 500 kts | 294° |
| 2026-04-24 13:05 | 9.47474 | 85.39019 | 33862 ft | 500 kts | 294° |
| 2026-04-24 13:05 | 9.50424 | 85.32640 | 33862 ft | 500 kts | 294° |
| 2026-04-24 13:06 | 9.53365 | 85.26272 | 33862 ft | 499 kts | 294° |
| 2026-04-24 13:06 | 9.56306 | 85.19904 | 33861 ft | 499 kts | 294° |
| 2026-04-24 13:07 | 9.59247 | 85.13527 | 33862 ft | 500 kts | 294° |
| 2026-04-24 13:07 | 9.62189 | 85.07148 | 33863 ft | 499 kts | 294° |
| 2026-04-24 13:08 | 9.65111 | 85.00808 | 33866 ft | 500 kts | 294° |
| 2026-04-24 13:08 | 9.68057 | 84.94414 | 33865 ft | 500 kts | 293° |
| 2026-04-24 13:09 | 9.72468 | 84.84832 | 33864 ft | 500 kts | 293° |
| 2026-04-24 13:09 | 9.75407 | 84.78446 | 33866 ft | 500 kts | 293° |
| 2026-04-24 13:10 | 9.78349 | 84.72052 | 33863 ft | 501 kts | 293° |
| 2026-04-24 13:10 | 9.81298 | 84.65642 | 33862 ft | 501 kts | 293° |
| 2026-04-24 13:11 | 9.84239 | 84.59247 | 33858 ft | 501 kts | 293° |
| 2026-04-24 13:11 | 9.87179 | 84.52851 | 33861 ft | 500 kts | 293° |
| 2026-04-24 13:12 | 9.90121 | 84.46454 | 33859 ft | 501 kts | 293° |
| 2026-04-24 13:12 | 9.90599 | 84.45414 | 33863 ft | 501 kts | 293° |
| 2026-04-24 13:13 | 9.94044 | 84.37915 | 33859 ft | 502 kts | 293° |
| 2026-04-24 13:13 | 9.98945 | 84.27248 | 33864 ft | 502 kts | 293° |
| 2026-04-24 13:14 | 10.01892 | 84.20830 | 33862 ft | 502 kts | 293° |
| 2026-04-24 13:14 | 10.04840 | 84.14413 | 33860 ft | 502 kts | 293° |
| 2026-04-24 13:15 | 10.06314 | 84.11180 | 33971 ft | 506 kts | 292° |
| 2026-04-24 13:15 | 10.07725 | 84.07910 | 34283 ft | 506 kts | 291° |
| 2026-04-24 13:15 | 10.09170 | 84.04660 | 34656 ft | 506 kts | 293° |
| 2026-04-24 13:15 | 10.10685 | 84.01440 | 35057 ft | 504 kts | 294° |
| 2026-04-24 13:16 | 10.12186 | 83.98229 | 35445 ft | 503 kts | 292° |
| 2026-04-24 13:16 | 10.13641 | 83.94997 | 35712 ft | 504 kts | 292° |
| 2026-04-24 13:16 | 10.15093 | 83.91752 | 35827 ft | 506 kts | 292° |
| 2026-04-24 13:16 | 10.16574 | 83.88519 | 35836 ft | 503 kts | 292° |
| 2026-04-24 13:17 | 10.19512 | 83.82119 | 35840 ft | 498 kts | 292° |
| 2026-04-24 13:17 | 10.22406 | 83.75731 | 35844 ft | 498 kts | 292° |
| 2026-04-24 13:18 | 10.25325 | 83.69344 | 35841 ft | 498 kts | 292° |
| 2026-04-24 13:18 | 10.28227 | 83.62952 | 35838 ft | 498 kts | 292° |
| 2026-04-24 13:19 | 10.31137 | 83.56561 | 35844 ft | 498 kts | 292° |
| 2026-04-24 13:19 | 10.34038 | 83.50173 | 35844 ft | 497 kts | 292° |
| 2026-04-24 13:20 | 10.36936 | 83.43795 | 35845 ft | 497 kts | 292° |
| 2026-04-24 13:20 | 10.39830 | 83.37419 | 35846 ft | 497 kts | 292° |
| 2026-04-24 13:21 | 10.42718 | 83.31051 | 35844 ft | 496 kts | 292° |
| 2026-04-24 13:21 | 10.45607 | 83.24679 | 35846 ft | 497 kts | 292° |
| 2026-04-24 13:22 | 10.48493 | 83.18308 | 35845 ft | 497 kts | 292° |
| 2026-04-24 13:22 | 10.51364 | 83.11968 | 35842 ft | 495 kts | 292° |
| 2026-04-24 13:23 | 10.52781 | 83.08842 | 35837 ft | 480 kts | 292° |
| 2026-04-24 13:23 | 10.54174 | 83.05763 | 35836 ft | 482 kts | 292° |
| 2026-04-24 13:23 | 10.57013 | 82.99472 | 35858 ft | 496 kts | 292° |
| 2026-04-24 13:24 | 10.59439 | 82.94117 | 35861 ft | 498 kts | 292° |
| 2026-04-24 13:24 | 10.62328 | 82.87715 | 35859 ft | 498 kts | 292° |
| 2026-04-24 13:25 | 10.65224 | 82.81316 | 35856 ft | 498 kts | 292° |
| 2026-04-24 13:25 | 10.68134 | 82.74928 | 35831 ft | 497 kts | 292° |
| 2026-04-24 13:26 | 10.70997 | 82.68585 | 35835 ft | 497 kts | 292° |
| 2026-04-24 13:26 | 10.73896 | 82.62212 | 35858 ft | 496 kts | 292° |
| 2026-04-24 13:27 | 10.76774 | 82.55836 | 35851 ft | 496 kts | 292° |
| 2026-04-24 13:27 | 10.79660 | 82.49474 | 35854 ft | 495 kts | 292° |
| 2026-04-24 13:28 | 10.82528 | 82.43123 | 35854 ft | 494 kts | 292° |
| 2026-04-24 13:28 | 10.85404 | 82.36766 | 35854 ft | 495 kts | 292° |
| 2026-04-24 13:29 | 10.88279 | 82.30398 | 35854 ft | 495 kts | 292° |
| 2026-04-24 13:29 | 10.91151 | 82.24037 | 35851 ft | 494 kts | 292° |
| 2026-04-24 13:30 | 10.94011 | 82.17697 | 35853 ft | 493 kts | 292° |
| 2026-04-24 13:30 | 10.96867 | 82.11361 | 35849 ft | 493 kts | 292° |
| 2026-04-24 13:31 | 10.99722 | 82.05025 | 35848 ft | 492 kts | 291° |
| 2026-04-24 13:31 | 11.02570 | 81.98700 | 35849 ft | 491 kts | 291° |
| 2026-04-24 13:32 | 11.05415 | 81.92376 | 35854 ft | 492 kts | 291° |
| 2026-04-24 13:32 | 11.08263 | 81.86042 | 35849 ft | 492 kts | 291° |
| 2026-04-24 13:33 | 11.11111 | 81.79704 | 35849 ft | 492 kts | 291° |
| 2026-04-24 13:33 | 11.13930 | 81.73425 | 35850 ft | 490 kts | 291° |
| 2026-04-24 13:34 | 11.16764 | 81.67110 | 35848 ft | 490 kts | 291° |
| 2026-04-24 13:34 | 11.19594 | 81.60800 | 35849 ft | 489 kts | 291° |
| 2026-04-24 13:35 | 11.22421 | 81.54491 | 35828 ft | 489 kts | 291° |
| 2026-04-24 13:35 | 11.25247 | 81.48181 | 35821 ft | 490 kts | 291° |
| 2026-04-24 13:36 | 11.28072 | 81.41870 | 35828 ft | 489 kts | 291° |
| 2026-04-24 13:36 | 11.30889 | 81.35571 | 35825 ft | 489 kts | 291° |
| 2026-04-24 13:37 | 11.33706 | 81.29270 | 35833 ft | 488 kts | 291° |
| 2026-04-24 13:37 | 11.36352 | 81.23343 | 35832 ft | 489 kts | 291° |
| 2026-04-24 13:38 | 11.39167 | 81.17040 | 35826 ft | 488 kts | 291° |
| 2026-04-24 13:38 | 11.41974 | 81.10746 | 35826 ft | 488 kts | 291° |
| 2026-04-24 13:39 | 11.44779 | 81.04453 | 35830 ft | 487 kts | 291° |
| 2026-04-24 13:39 | 11.47583 | 80.98159 | 35829 ft | 487 kts | 291° |
| 2026-04-24 13:40 | 11.50386 | 80.91862 | 35831 ft | 488 kts | 291° |
| 2026-04-24 13:40 | 11.53189 | 80.85561 | 35836 ft | 488 kts | 291° |
| 2026-04-24 13:41 | 11.55971 | 80.79303 | 35835 ft | 487 kts | 291° |
| 2026-04-24 13:41 | 11.58761 | 80.73025 | 35833 ft | 485 kts | 291° |
| 2026-04-24 13:42 | 11.61546 | 80.66750 | 35832 ft | 487 kts | 291° |
| 2026-04-24 13:42 | 11.64340 | 80.60453 | 35833 ft | 487 kts | 291° |
| 2026-04-24 13:43 | 11.67137 | 80.54144 | 35837 ft | 489 kts | 291° |
| 2026-04-24 13:43 | 11.69940 | 80.47818 | 35833 ft | 490 kts | 291° |
| 2026-04-24 13:44 | 11.72748 | 80.41475 | 35834 ft | 491 kts | 291° |
| 2026-04-24 13:44 | 11.75559 | 80.35120 | 35832 ft | 491 kts | 291° |
| 2026-04-24 13:45 | 11.78374 | 80.28754 | 35830 ft | 493 kts | 291° |
| 2026-04-24 13:45 | 11.81190 | 80.22380 | 35826 ft | 492 kts | 291° |
| 2026-04-24 13:46 | 11.83998 | 80.16019 | 35828 ft | 491 kts | 291° |
| 2026-04-24 13:46 | 11.86805 | 80.09655 | 35824 ft | 492 kts | 290° |
| 2026-04-24 13:47 | 11.89579 | 80.03274 | 35828 ft | 491 kts | 290° |
| 2026-04-24 13:47 | 11.92357 | 79.96912 | 35825 ft | 490 kts | 290° |
| 2026-04-24 13:48 | 11.95127 | 79.90554 | 35843 ft | 490 kts | 290° |
| 2026-04-24 13:48 | 11.97818 | 79.84373 | 35832 ft | 490 kts | 290° |
| 2026-04-24 13:49 | 12.00587 | 79.78011 | 35835 ft | 490 kts | 290° |
| 2026-04-24 13:49 | 12.03356 | 79.71641 | 35834 ft | 491 kts | 289° |
| 2026-04-24 13:50 | 12.06126 | 79.65268 | 35830 ft | 491 kts | 289° |
| 2026-04-24 13:50 | 12.08909 | 79.58911 | 35830 ft | 490 kts | 291° |
| 2026-04-24 13:51 | 12.11791 | 79.52594 | 35830 ft | 490 kts | 290° |
| 2026-04-24 13:51 | 12.14660 | 79.46273 | 35831 ft | 490 kts | 290° |
| 2026-04-24 13:52 | 12.17546 | 79.39961 | 35824 ft | 490 kts | 290° |
| 2026-04-24 13:52 | 12.20413 | 79.33635 | 35825 ft | 491 kts | 290° |
| 2026-04-24 13:53 | 12.23295 | 79.27314 | 35826 ft | 489 kts | 290° |
| 2026-04-24 13:53 | 12.26154 | 79.21007 | 35826 ft | 489 kts | 290° |
| 2026-04-24 13:54 | 12.29018 | 79.14706 | 35833 ft | 489 kts | 290° |
| 2026-04-24 13:54 | 12.31879 | 79.08395 | 35835 ft | 489 kts | 290° |
| 2026-04-24 13:55 | 12.34739 | 79.02087 | 35836 ft | 488 kts | 290° |
| 2026-04-24 13:55 | 12.36905 | 78.97306 | 35838 ft | 488 kts | 289° |
| 2026-04-24 13:56 | 12.39232 | 78.92166 | 35839 ft | 487 kts | 289° |
| 2026-04-24 13:56 | 12.41586 | 78.86963 | 35838 ft | 488 kts | 289° |
| 2026-04-24 13:57 | 12.44435 | 78.80663 | 35844 ft | 487 kts | 289° |
| 2026-04-24 13:57 | 12.47280 | 78.74365 | 35840 ft | 487 kts | 289° |
| 2026-04-24 13:58 | 12.50098 | 78.68126 | 35844 ft | 486 kts | 289° |
| 2026-04-24 13:58 | 12.52932 | 78.61843 | 35837 ft | 485 kts | 290° |
| 2026-04-24 13:59 | 12.55759 | 78.55574 | 35865 ft | 487 kts | 289° |
| 2026-04-24 13:59 | 12.58592 | 78.49285 | 35873 ft | 486 kts | 289° |
| 2026-04-24 14:00 | 12.61423 | 78.42996 | 35882 ft | 487 kts | 289° |
| 2026-04-24 14:00 | 12.64255 | 78.36701 | 35892 ft | 486 kts | 289° |
| 2026-04-24 14:01 | 12.67081 | 78.30415 | 35909 ft | 486 kts | 289° |
| 2026-04-24 14:01 | 12.69905 | 78.24128 | 35921 ft | 486 kts | 289° |
| 2026-04-24 14:02 | 12.72725 | 78.17844 | 35933 ft | 485 kts | 289° |
| 2026-04-24 14:02 | 12.75544 | 78.11559 | 35946 ft | 486 kts | 289° |
| 2026-04-24 14:03 | 12.78367 | 78.05262 | 35956 ft | 487 kts | 289° |
| 2026-04-24 14:03 | 12.81188 | 77.98962 | 35967 ft | 486 kts | 289° |
| 2026-04-24 14:04 | 12.84010 | 77.92656 | 35984 ft | 486 kts | 289° |
| 2026-04-24 14:04 | 12.86824 | 77.86364 | 35987 ft | 486 kts | 289° |
| 2026-04-24 14:05 | 12.88237 | 77.83201 | 35777 ft | 488 kts | 289° |
| 2026-04-24 14:05 | 12.89642 | 77.80054 | 35717 ft | 484 kts | 289° |
| 2026-04-24 14:05 | 12.92418 | 77.73839 | 35731 ft | 483 kts | 289° |
| 2026-04-24 14:06 | 12.95249 | 77.67578 | 35864 ft | 486 kts | 292° |
| 2026-04-24 14:06 | 12.98535 | 77.61483 | 35982 ft | 490 kts | 293° |
| 2026-04-24 14:07 | 13.01805 | 77.55353 | 35987 ft | 489 kts | 293° |
| 2026-04-24 14:07 | 13.05082 | 77.49240 | 35979 ft | 489 kts | 293° |
| 2026-04-24 14:08 | 13.08353 | 77.43122 | 36080 ft | 486 kts | 292° |
| 2026-04-24 14:08 | 13.09979 | 77.40079 | 36194 ft | 488 kts | 292° |
| 2026-04-24 14:08 | 13.11610 | 77.37024 | 36234 ft | 489 kts | 292° |
| 2026-04-24 14:09 | 13.14873 | 77.30922 | 36167 ft | 487 kts | 292° |
| 2026-04-24 14:09 | 13.17571 | 77.25861 | 36045 ft | 486 kts | 292° |
| 2026-04-24 14:10 | 13.20810 | 77.19791 | 35951 ft | 484 kts | 292° |
| 2026-04-24 14:10 | 13.24045 | 77.13718 | 35942 ft | 486 kts | 292° |
| 2026-04-24 14:11 | 13.27289 | 77.07631 | 35925 ft | 487 kts | 292° |
| 2026-04-24 14:12 | 13.32152 | 76.98491 | 35935 ft | 486 kts | 292° |
| 2026-04-24 14:12 | 13.35391 | 76.92399 | 35915 ft | 486 kts | 292° |
| 2026-04-24 14:13 | 13.38631 | 76.86301 | 35907 ft | 487 kts | 292° |
| 2026-04-24 14:13 | 13.41869 | 76.80201 | 35907 ft | 487 kts | 292° |
| 2026-04-24 14:14 | 13.45111 | 76.74089 | 35909 ft | 488 kts | 292° |
| 2026-04-24 14:14 | 13.49958 | 76.64948 | 35900 ft | 487 kts | 292° |
| 2026-04-24 14:15 | 13.53194 | 76.58835 | 35902 ft | 487 kts | 292° |
| 2026-04-24 14:15 | 13.56434 | 76.52713 | 35900 ft | 487 kts | 292° |
| 2026-04-24 14:16 | 13.59661 | 76.46610 | 35903 ft | 487 kts | 292° |
| 2026-04-24 14:17 | 13.64512 | 76.37428 | 35904 ft | 487 kts | 292° |
| 2026-04-24 14:17 | 13.69358 | 76.28243 | 35910 ft | 488 kts | 292° |
| 2026-04-24 14:18 | 13.72591 | 76.22114 | 35916 ft | 487 kts | 292° |
| 2026-04-24 14:18 | 13.75817 | 76.15988 | 35916 ft | 487 kts | 292° |
| 2026-04-24 14:19 | 13.79046 | 76.09857 | 35918 ft | 487 kts | 292° |
| 2026-04-24 14:19 | 13.82270 | 76.03727 | 35918 ft | 487 kts | 292° |
| 2026-04-24 14:20 | 13.85487 | 75.97607 | 35919 ft | 487 kts | 292° |
| 2026-04-24 14:20 | 13.88707 | 75.91476 | 35916 ft | 486 kts | 292° |
| 2026-04-24 14:21 | 13.91924 | 75.85347 | 35914 ft | 486 kts | 292° |
| 2026-04-24 14:21 | 13.95139 | 75.79218 | 35912 ft | 486 kts | 292° |
| 2026-04-24 14:22 | 13.98330 | 75.73128 | 35916 ft | 487 kts | 292° |
| 2026-04-24 14:22 | 14.01567 | 75.66948 | 36602 ft | 486 kts | 293° |
| 2026-04-24 14:23 | 14.03169 | 75.63888 | 36997 ft | 484 kts | 293° |
| 2026-04-24 14:23 | 14.04743 | 75.60879 | 37358 ft | 484 kts | 293° |
| 2026-04-24 14:23 | 14.06357 | 75.57791 | 37729 ft | 483 kts | 293° |
| 2026-04-24 14:23 | 14.07929 | 75.54786 | 38091 ft | 482 kts | 293° |
| 2026-04-24 14:24 | 14.09514 | 75.51752 | 38443 ft | 481 kts | 293° |
| 2026-04-24 14:24 | 14.11094 | 75.48717 | 38750 ft | 480 kts | 293° |
| 2026-04-24 14:24 | 14.12666 | 75.45689 | 39034 ft | 479 kts | 293° |
| 2026-04-24 14:24 | 14.14241 | 75.42661 | 39295 ft | 479 kts | 294° |
| 2026-04-24 14:25 | 14.15815 | 75.39639 | 39544 ft | 478 kts | 294° |
| 2026-04-24 14:25 | 14.17388 | 75.36615 | 39775 ft | 479 kts | 294° |
| 2026-04-24 14:25 | 14.18964 | 75.33578 | 39884 ft | 482 kts | 294° |
| 2026-04-24 14:26 | 14.22127 | 75.27493 | 39890 ft | 479 kts | 294° |
| 2026-04-24 14:26 | 14.25257 | 75.21460 | 39892 ft | 476 kts | 294° |
| 2026-04-24 14:27 | 14.28378 | 75.15441 | 39889 ft | 476 kts | 294° |
| 2026-04-24 14:27 | 14.31495 | 75.09427 | 39881 ft | 475 kts | 294° |
| 2026-04-24 14:28 | 14.34609 | 75.03413 | 39883 ft | 476 kts | 294° |
| 2026-04-24 14:28 | 14.37727 | 74.97388 | 39878 ft | 475 kts | 294° |
| 2026-04-24 14:29 | 14.40836 | 74.91374 | 39878 ft | 475 kts | 294° |
| 2026-04-24 14:29 | 14.43949 | 74.85351 | 39876 ft | 475 kts | 294° |
| 2026-04-24 14:30 | 14.46529 | 74.80352 | 39872 ft | 475 kts | 294° |
| 2026-04-24 14:30 | 14.50155 | 74.73361 | 39869 ft | 476 kts | 295° |
| 2026-04-24 14:31 | 14.53382 | 74.67341 | 39870 ft | 476 kts | 294° |
| 2026-04-24 14:31 | 14.56536 | 74.61337 | 39864 ft | 476 kts | 294° |
| 2026-04-24 14:32 | 14.59696 | 74.55380 | 39860 ft | 477 kts | 295° |
| 2026-04-24 14:32 | 14.62864 | 74.49373 | 39856 ft | 477 kts | 294° |
| 2026-04-24 14:33 | 14.66039 | 74.43361 | 39856 ft | 477 kts | 295° |
| 2026-04-24 14:33 | 14.69216 | 74.37336 | 39850 ft | 478 kts | 294° |
| 2026-04-24 14:34 | 14.72391 | 74.31312 | 39846 ft | 478 kts | 294° |
| 2026-04-24 14:34 | 14.75566 | 74.25283 | 39838 ft | 478 kts | 294° |
| 2026-04-24 14:35 | 14.77276 | 74.22033 | 39844 ft | 478 kts | 294° |
| 2026-04-24 14:35 | 14.78276 | 74.20131 | 39838 ft | 478 kts | 294° |
| 2026-04-24 14:36 | 14.81449 | 74.14098 | 39837 ft | 478 kts | 294° |
| 2026-04-24 14:36 | 14.84622 | 74.08058 | 39828 ft | 478 kts | 294° |
| 2026-04-24 14:37 | 14.87793 | 74.02019 | 39832 ft | 478 kts | 294° |
| 2026-04-24 14:37 | 14.90962 | 73.95975 | 39834 ft | 479 kts | 294° |
| 2026-04-24 14:38 | 14.94118 | 73.89963 | 39828 ft | 479 kts | 294° |
| 2026-04-24 14:38 | 14.97294 | 73.83908 | 39830 ft | 479 kts | 294° |
| 2026-04-24 14:39 | 15.00468 | 73.77849 | 39830 ft | 479 kts | 294° |
| 2026-04-24 14:39 | 15.03636 | 73.71782 | 39829 ft | 480 kts | 294° |
| 2026-04-24 14:40 | 15.06804 | 73.65710 | 39826 ft | 480 kts | 294° |
| 2026-04-24 14:40 | 15.09975 | 73.59630 | 39819 ft | 481 kts | 294° |
| 2026-04-24 14:41 | 15.13148 | 73.53539 | 39818 ft | 480 kts | 294° |
| 2026-04-24 14:41 | 15.16312 | 73.47462 | 39818 ft | 479 kts | 294° |
| 2026-04-24 14:42 | 15.18940 | 73.42409 | 39819 ft | 479 kts | 294° |
| 2026-04-24 14:42 | 15.22636 | 73.35299 | 39822 ft | 480 kts | 294° |
| 2026-04-24 14:43 | 15.25795 | 73.29216 | 39821 ft | 480 kts | 294° |
| 2026-04-24 14:43 | 15.28955 | 73.23126 | 39820 ft | 480 kts | 294° |
| 2026-04-24 14:44 | 15.32113 | 73.17034 | 39847 ft | 481 kts | 294° |
| 2026-04-24 14:44 | 15.35258 | 73.10963 | 39836 ft | 482 kts | 294° |
| 2026-04-24 14:45 | 15.38421 | 73.04852 | 39837 ft | 481 kts | 294° |
| 2026-04-24 14:45 | 15.41582 | 72.98741 | 39841 ft | 481 kts | 294° |
| 2026-04-24 14:46 | 15.44743 | 72.92624 | 39836 ft | 481 kts | 294° |
| 2026-04-24 14:46 | 15.47900 | 72.86509 | 39842 ft | 481 kts | 294° |
| 2026-04-24 14:47 | 15.50547 | 72.81379 | 39844 ft | 481 kts | 294° |
| 2026-04-24 14:47 | 15.54213 | 72.74266 | 39841 ft | 482 kts | 294° |
| 2026-04-24 14:48 | 15.57370 | 72.68136 | 39842 ft | 481 kts | 294° |
| 2026-04-24 14:48 | 15.60524 | 72.62006 | 39843 ft | 482 kts | 294° |
| 2026-04-24 14:49 | 15.63675 | 72.55879 | 39844 ft | 481 kts | 294° |
| 2026-04-24 14:49 | 15.66819 | 72.49757 | 39827 ft | 480 kts | 294° |
| 2026-04-24 14:50 | 15.69962 | 72.43642 | 39854 ft | 481 kts | 294° |
| 2026-04-24 14:50 | 15.73107 | 72.37498 | 39843 ft | 482 kts | 294° |
| 2026-04-24 14:51 | 15.76256 | 72.31359 | 39828 ft | 481 kts | 294° |
| 2026-04-24 14:51 | 15.79373 | 72.25268 | 39836 ft | 481 kts | 294° |
| 2026-04-24 14:52 | 15.82509 | 72.19138 | 39851 ft | 481 kts | 294° |
| 2026-04-24 14:52 | 15.85647 | 72.12997 | 39834 ft | 481 kts | 294° |
| 2026-04-24 14:53 | 15.88780 | 72.06861 | 39836 ft | 480 kts | 294° |
| 2026-04-24 14:53 | 15.91909 | 72.00730 | 39843 ft | 481 kts | 294° |
| 2026-04-24 14:54 | 15.95039 | 71.94590 | 39842 ft | 481 kts | 294° |
| 2026-04-24 14:54 | 15.98167 | 71.88447 | 39844 ft | 481 kts | 294° |
| 2026-04-24 14:55 | 16.00767 | 71.83340 | 39843 ft | 481 kts | 294° |
| 2026-04-24 14:55 | 16.04423 | 71.76148 | 39842 ft | 481 kts | 294° |
| 2026-04-24 14:56 | 16.07547 | 71.69998 | 39851 ft | 481 kts | 294° |
| 2026-04-24 14:56 | 16.10670 | 71.63848 | 39846 ft | 481 kts | 294° |
| 2026-04-24 14:57 | 16.13885 | 71.57745 | 39847 ft | 481 kts | 295° |
| 2026-04-24 14:57 | 16.16542 | 71.52669 | 39848 ft | 480 kts | 294° |
| 2026-04-24 14:58 | 16.19724 | 71.46552 | 39842 ft | 481 kts | 295° |
| 2026-04-24 14:58 | 16.22928 | 71.40438 | 39847 ft | 481 kts | 295° |
| 2026-04-24 14:59 | 16.26117 | 71.34307 | 39845 ft | 482 kts | 295° |
| 2026-04-24 14:59 | 16.29320 | 71.28171 | 39846 ft | 482 kts | 295° |
| 2026-04-24 15:00 | 16.32513 | 71.22032 | 39854 ft | 483 kts | 295° |
| 2026-04-24 15:00 | 16.35710 | 71.15890 | 39850 ft | 482 kts | 295° |
| 2026-04-24 15:01 | 16.38898 | 71.09753 | 39848 ft | 481 kts | 295° |
| 2026-04-24 15:01 | 16.42082 | 71.03624 | 39849 ft | 481 kts | 295° |
| 2026-04-24 15:02 | 16.45244 | 70.97529 | 39854 ft | 482 kts | 295° |
| 2026-04-24 15:02 | 16.48434 | 70.91375 | 39855 ft | 483 kts | 295° |
| 2026-04-24 15:03 | 16.51622 | 70.85220 | 39858 ft | 483 kts | 295° |
| 2026-04-24 15:03 | 16.54826 | 70.79062 | 39855 ft | 483 kts | 295° |
| 2026-04-24 15:04 | 16.58061 | 70.72922 | 39851 ft | 483 kts | 295° |
| 2026-04-24 15:04 | 16.61266 | 70.66775 | 39855 ft | 483 kts | 295° |
| 2026-04-24 15:05 | 16.64488 | 70.60627 | 39863 ft | 484 kts | 295° |
| 2026-04-24 15:05 | 16.66828 | 70.56142 | 39863 ft | 484 kts | 295° |
| 2026-04-24 15:06 | 16.68638 | 70.52674 | 39788 ft | 485 kts | 295° |
| 2026-04-24 15:06 | 16.71856 | 70.46514 | 39820 ft | 483 kts | 295° |
| 2026-04-24 15:07 | 16.75066 | 70.40352 | 39843 ft | 483 kts | 295° |
| 2026-04-24 15:07 | 16.78255 | 70.34232 | 39847 ft | 483 kts | 296° |
| 2026-04-24 15:08 | 16.81459 | 70.28074 | 39841 ft | 483 kts | 296° |
| 2026-04-24 15:08 | 16.84664 | 70.21911 | 39847 ft | 483 kts | 296° |
| 2026-04-24 15:09 | 16.87871 | 70.15737 | 39845 ft | 483 kts | 296° |
| 2026-04-24 15:09 | 16.91071 | 70.09571 | 39853 ft | 484 kts | 296° |
| 2026-04-24 15:10 | 16.94278 | 70.03386 | 39852 ft | 484 kts | 296° |
| 2026-04-24 15:10 | 16.97484 | 69.97197 | 39857 ft | 484 kts | 296° |
| 2026-04-24 15:11 | 17.00684 | 69.91014 | 39853 ft | 484 kts | 296° |
| 2026-04-24 15:11 | 17.03881 | 69.84833 | 39859 ft | 483 kts | 296° |
| 2026-04-24 15:12 | 17.07072 | 69.78655 | 39852 ft | 483 kts | 296° |
| 2026-04-24 15:12 | 17.11853 | 69.69390 | 39855 ft | 483 kts | 296° |
| 2026-04-24 15:13 | 17.15034 | 69.63217 | 39855 ft | 482 kts | 296° |
| 2026-04-24 15:13 | 17.18215 | 69.57040 | 39854 ft | 482 kts | 296° |
| 2026-04-24 15:14 | 17.21400 | 69.50869 | 39862 ft | 482 kts | 297° |
| 2026-04-24 15:14 | 17.24604 | 69.44713 | 39856 ft | 482 kts | 297° |
| 2026-04-24 15:15 | 17.27795 | 69.38538 | 39866 ft | 483 kts | 297° |
| 2026-04-24 15:15 | 17.30996 | 69.32360 | 39867 ft | 482 kts | 297° |
| 2026-04-24 15:16 | 17.34185 | 69.26187 | 39871 ft | 482 kts | 297° |
| 2026-04-24 15:16 | 17.37351 | 69.20059 | 39874 ft | 482 kts | 297° |
| 2026-04-24 15:17 | 17.40536 | 69.13885 | 39872 ft | 482 kts | 297° |
| 2026-04-24 15:17 | 17.43722 | 69.07705 | 39870 ft | 482 kts | 297° |
| 2026-04-24 15:18 | 17.46910 | 69.01515 | 39874 ft | 483 kts | 297° |
| 2026-04-24 15:18 | 17.50092 | 68.95332 | 39875 ft | 482 kts | 297° |
| 2026-04-24 15:19 | 17.53275 | 68.89139 | 39879 ft | 483 kts | 297° |
| 2026-04-24 15:19 | 17.56458 | 68.82941 | 39879 ft | 483 kts | 297° |
| 2026-04-24 15:20 | 17.59643 | 68.76732 | 39877 ft | 483 kts | 297° |
| 2026-04-24 15:20 | 17.62823 | 68.70530 | 39880 ft | 483 kts | 297° |
| 2026-04-24 15:21 | 17.66000 | 68.64325 | 39880 ft | 483 kts | 297° |
| 2026-04-24 15:21 | 17.69178 | 68.58113 | 39880 ft | 483 kts | 298° |
| 2026-04-24 15:22 | 17.72352 | 68.51903 | 39874 ft | 483 kts | 298° |
| 2026-04-24 15:23 | 17.77108 | 68.42584 | 39866 ft | 482 kts | 298° |
| 2026-04-24 15:23 | 17.81850 | 68.33282 | 39868 ft | 482 kts | 298° |
| 2026-04-24 15:25 | 17.89211 | 68.18813 | 39872 ft | 482 kts | 298° |
| 2026-04-24 15:26 | 17.97591 | 68.02303 | 39876 ft | 481 kts | 298° |
| 2026-04-24 15:27 | 18.07013 | 67.83685 | 39873 ft | 481 kts | 299° |
| 2026-04-24 15:29 | 18.16661 | 67.65222 | 39879 ft | 480 kts | 300° |
| 2026-04-24 15:31 | 18.27833 | 67.43879 | 39873 ft | 474 kts | 300° |
| 2026-04-24 15:33 | 18.40507 | 67.19547 | 39874 ft | 475 kts | 301° |
| 2026-04-24 15:34 | 18.48427 | 67.04295 | 39876 ft | 473 kts | 301° |
| 2026-04-24 15:35 | 18.56309 | 66.89078 | 39876 ft | 474 kts | 301° |
| 2026-04-24 15:36 | 18.59465 | 66.82975 | 39877 ft | 474 kts | 301° |
| 2026-04-24 15:36 | 18.64188 | 66.73829 | 39877 ft | 473 kts | 301° |
| 2026-04-24 15:37 | 18.67335 | 66.67728 | 39877 ft | 473 kts | 300° |
| 2026-04-24 15:37 | 18.70480 | 66.61624 | 39880 ft | 473 kts | 300° |
| 2026-04-24 15:38 | 18.73614 | 66.55537 | 39882 ft | 472 kts | 300° |
| 2026-04-24 15:38 | 18.76742 | 66.49454 | 39880 ft | 472 kts | 300° |
| 2026-04-24 15:39 | 18.79852 | 66.43401 | 39885 ft | 472 kts | 300° |
| 2026-04-24 15:39 | 18.82978 | 66.37311 | 39884 ft | 471 kts | 300° |
| 2026-04-24 15:40 | 18.86102 | 66.31217 | 39885 ft | 472 kts | 300° |
| 2026-04-24 15:40 | 18.89220 | 66.25129 | 39888 ft | 472 kts | 300° |
| 2026-04-24 15:41 | 18.92339 | 66.19034 | 39883 ft | 471 kts | 300° |
| 2026-04-24 15:41 | 18.95446 | 66.12957 | 39887 ft | 470 kts | 300° |
| 2026-04-24 15:42 | 18.98550 | 66.06877 | 39883 ft | 470 kts | 300° |
| 2026-04-24 15:42 | 19.01656 | 66.00788 | 39885 ft | 471 kts | 300° |
| 2026-04-24 15:43 | 19.04760 | 65.94697 | 39890 ft | 471 kts | 300° |
| 2026-04-24 15:43 | 19.07843 | 65.88642 | 39888 ft | 471 kts | 300° |
| 2026-04-24 15:44 | 19.10942 | 65.82548 | 39885 ft | 470 kts | 300° |
| 2026-04-24 15:44 | 19.14042 | 65.76448 | 39887 ft | 470 kts | 300° |
| 2026-04-24 15:45 | 19.17137 | 65.70349 | 39888 ft | 470 kts | 300° |
| 2026-04-24 15:45 | 19.20228 | 65.64253 | 39890 ft | 470 kts | 300° |
| 2026-04-24 15:46 | 19.23316 | 65.58156 | 39891 ft | 471 kts | 300° |
| 2026-04-24 15:46 | 19.26403 | 65.52055 | 39894 ft | 470 kts | 300° |
| 2026-04-24 15:47 | 19.28960 | 65.46997 | 39889 ft | 468 kts | 300° |
| 2026-04-24 15:47 | 19.32028 | 65.40922 | 39887 ft | 467 kts | 300° |
| 2026-04-24 15:48 | 19.35088 | 65.34858 | 39885 ft | 467 kts | 300° |
| 2026-04-24 15:48 | 19.38146 | 65.28789 | 39888 ft | 467 kts | 300° |
| 2026-04-24 15:49 | 19.41196 | 65.22731 | 39884 ft | 466 kts | 300° |
| 2026-04-24 15:49 | 19.44221 | 65.16717 | 39895 ft | 465 kts | 300° |
| 2026-04-24 15:50 | 19.47269 | 65.10652 | 39901 ft | 467 kts | 300° |
| 2026-04-24 15:50 | 19.50319 | 65.04572 | 39901 ft | 467 kts | 300° |
| 2026-04-24 15:51 | 19.53349 | 64.98535 | 39903 ft | 467 kts | 300° |
| 2026-04-24 15:51 | 19.56477 | 64.92519 | 39900 ft | 465 kts | 301° |
| 2026-04-24 15:52 | 19.59573 | 64.86490 | 39902 ft | 465 kts | 300° |
| 2026-04-24 15:52 | 19.62675 | 64.80461 | 39899 ft | 465 kts | 301° |
| 2026-04-24 15:53 | 19.65772 | 64.74439 | 39901 ft | 464 kts | 301° |
| 2026-04-24 15:53 | 19.68851 | 64.68435 | 39899 ft | 463 kts | 301° |
| 2026-04-24 15:54 | 19.71928 | 64.62440 | 39898 ft | 462 kts | 301° |
| 2026-04-24 15:54 | 19.74993 | 64.56452 | 39894 ft | 461 kts | 301° |
| 2026-04-24 15:55 | 19.78060 | 64.50463 | 39894 ft | 461 kts | 301° |
| 2026-04-24 15:55 | 19.81118 | 64.44478 | 39889 ft | 461 kts | 301° |
| 2026-04-24 15:56 | 19.84177 | 64.38490 | 39890 ft | 461 kts | 301° |
| 2026-04-24 15:56 | 19.87231 | 64.32503 | 39893 ft | 461 kts | 301° |
| 2026-04-24 15:57 | 19.90281 | 64.26518 | 39894 ft | 461 kts | 301° |
| 2026-04-24 15:57 | 19.93332 | 64.20526 | 39897 ft | 461 kts | 301° |
| 2026-04-24 15:59 | 20.00894 | 64.05645 | 39896 ft | 460 kts | 301° |
| 2026-04-24 15:59 | 20.03929 | 63.99661 | 39896 ft | 459 kts | 301° |
| 2026-04-24 16:00 | 20.06955 | 63.93688 | 39896 ft | 459 kts | 301° |
| 2026-04-24 16:00 | 20.09979 | 63.87716 | 39898 ft | 458 kts | 301° |
| 2026-04-24 16:01 | 20.12998 | 63.81744 | 39896 ft | 458 kts | 301° |
| 2026-04-24 16:01 | 20.16017 | 63.75767 | 39898 ft | 458 kts | 301° |
| 2026-04-24 16:02 | 20.19031 | 63.69794 | 39898 ft | 458 kts | 301° |
| 2026-04-24 16:02 | 20.22041 | 63.63822 | 39897 ft | 457 kts | 300° |
| 2026-04-24 16:03 | 20.25048 | 63.57851 | 39897 ft | 458 kts | 300° |
| 2026-04-24 16:03 | 20.28034 | 63.51913 | 39899 ft | 457 kts | 300° |
| 2026-04-24 16:04 | 20.31035 | 63.45942 | 39893 ft | 456 kts | 300° |
| 2026-04-24 16:04 | 20.34026 | 63.39982 | 39894 ft | 457 kts | 300° |
| 2026-04-24 16:05 | 20.38522 | 63.31012 | 39903 ft | 458 kts | 300° |
| 2026-04-24 16:06 | 20.43019 | 63.22026 | 39907 ft | 457 kts | 300° |
| 2026-04-24 16:07 | 20.47504 | 63.13050 | 39906 ft | 457 kts | 300° |
| 2026-04-24 16:07 | 20.51975 | 63.04088 | 39906 ft | 456 kts | 300° |
| 2026-04-24 16:08 | 20.56442 | 62.95118 | 39906 ft | 456 kts | 300° |
| 2026-04-24 16:09 | 20.60901 | 62.86151 | 39904 ft | 455 kts | 300° |
| 2026-04-24 16:09 | 20.63847 | 62.80218 | 39904 ft | 455 kts | 300° |
| 2026-04-24 16:11 | 20.71228 | 62.65326 | 39900 ft | 453 kts | 300° |
| 2026-04-24 16:11 | 20.74172 | 62.59375 | 39898 ft | 453 kts | 300° |
| 2026-04-24 16:12 | 20.78584 | 62.50444 | 39899 ft | 453 kts | 300° |
| 2026-04-24 16:13 | 20.82983 | 62.41524 | 39901 ft | 452 kts | 300° |
| 2026-04-24 16:14 | 20.88840 | 62.29627 | 39905 ft | 452 kts | 300° |
| 2026-04-24 16:14 | 20.93221 | 62.20710 | 39901 ft | 451 kts | 300° |
| 2026-04-24 16:15 | 20.97568 | 62.11847 | 39904 ft | 450 kts | 300° |
| 2026-04-24 16:16 | 21.01929 | 62.02942 | 39906 ft | 450 kts | 300° |
| 2026-04-24 16:17 | 21.09193 | 61.88076 | 39904 ft | 450 kts | 300° |
| 2026-04-24 16:18 | 21.14982 | 61.76201 | 39899 ft | 449 kts | 300° |
| 2026-04-24 16:19 | 21.19281 | 61.67282 | 39897 ft | 449 kts | 296° |
| 2026-04-24 16:20 | 21.21026 | 61.57426 | 39901 ft | 458 kts | 275° |
| 2026-04-24 16:20 | 21.21314 | 61.47175 | 39902 ft | 458 kts | 276° |
| 2026-04-24 16:21 | 21.21586 | 61.36946 | 39901 ft | 457 kts | 276° |
| 2026-04-24 16:22 | 21.21773 | 61.30128 | 39903 ft | 458 kts | 275° |
| 2026-04-24 16:22 | 21.22040 | 61.19897 | 39898 ft | 458 kts | 276° |
| 2026-04-24 16:23 | 21.22216 | 61.13071 | 39903 ft | 458 kts | 275° |
| 2026-04-24 16:24 | 21.22474 | 61.02847 | 39902 ft | 457 kts | 275° |
| 2026-04-24 16:24 | 21.22642 | 60.96036 | 39903 ft | 457 kts | 276° |
| 2026-04-24 16:25 | 21.22809 | 60.89218 | 39898 ft | 458 kts | 275° |
| 2026-04-24 16:25 | 21.22971 | 60.82402 | 39900 ft | 457 kts | 275° |
| 2026-04-24 16:26 | 21.23211 | 60.72198 | 39895 ft | 455 kts | 275° |
| 2026-04-24 16:27 | 21.23443 | 60.62028 | 39896 ft | 455 kts | 275° |
| 2026-04-24 16:27 | 21.23594 | 60.55255 | 39892 ft | 454 kts | 275° |
| 2026-04-24 16:28 | 21.23743 | 60.48490 | 39894 ft | 454 kts | 275° |
| 2026-04-24 16:28 | 21.23960 | 60.38381 | 39894 ft | 454 kts | 275° |
| 2026-04-24 16:29 | 21.24101 | 60.31617 | 39896 ft | 454 kts | 275° |
| 2026-04-24 16:30 | 21.24376 | 60.18103 | 39894 ft | 453 kts | 275° |
| 2026-04-24 16:30 | 21.24508 | 60.11356 | 39888 ft | 453 kts | 275° |
| 2026-04-24 16:31 | 21.24636 | 60.04616 | 39891 ft | 452 kts | 275° |
| 2026-04-24 16:31 | 21.24761 | 59.97882 | 39889 ft | 452 kts | 275° |
| 2026-04-24 16:32 | 21.24884 | 59.91131 | 39892 ft | 452 kts | 275° |
| 2026-04-24 16:32 | 21.25004 | 59.84393 | 39889 ft | 452 kts | 275° |
| 2026-04-24 16:33 | 21.25121 | 59.77663 | 39891 ft | 452 kts | 275° |
| 2026-04-24 16:33 | 21.25236 | 59.70930 | 39892 ft | 452 kts | 275° |
| 2026-04-24 16:34 | 21.25329 | 59.65331 | 39895 ft | 451 kts | 275° |
| 2026-04-24 16:34 | 21.25456 | 59.57523 | 39892 ft | 451 kts | 275° |
| 2026-04-24 16:35 | 21.25545 | 59.51898 | 39893 ft | 450 kts | 275° |
| 2026-04-24 16:35 | 21.25649 | 59.45195 | 39890 ft | 450 kts | 275° |
| 2026-04-24 16:36 | 21.25750 | 59.38539 | 39893 ft | 450 kts | 275° |
| 2026-04-24 16:36 | 21.25848 | 59.31843 | 39888 ft | 449 kts | 275° |
| 2026-04-24 16:37 | 21.25944 | 59.25163 | 39889 ft | 448 kts | 275° |
| 2026-04-24 16:37 | 21.26036 | 59.18487 | 39885 ft | 447 kts | 275° |
| 2026-04-24 16:38 | 21.26127 | 59.11827 | 39885 ft | 447 kts | 275° |
| 2026-04-24 16:38 | 21.26214 | 59.05171 | 39884 ft | 446 kts | 274° |
| 2026-04-24 16:39 | 21.26300 | 58.98494 | 39889 ft | 452 kts | 274° |
| 2026-04-24 16:39 | 21.26382 | 58.91728 | 39879 ft | 453 kts | 274° |
| 2026-04-24 16:40 | 21.26463 | 58.84991 | 39886 ft | 452 kts | 274° |
| 2026-04-24 16:40 | 21.26924 | 58.78316 | 39892 ft | 447 kts | 284° |
| 2026-04-24 16:41 | 21.28683 | 58.71939 | 39895 ft | 446 kts | 289° |
| 2026-04-24 16:41 | 21.30495 | 58.65569 | 39894 ft | 447 kts | 289° |
| 2026-04-24 16:42 | 21.32326 | 58.59208 | 39898 ft | 446 kts | 289° |
| 2026-04-24 16:42 | 21.34144 | 58.52844 | 39896 ft | 446 kts | 289° |
| 2026-04-24 16:43 | 21.35963 | 58.46480 | 39897 ft | 446 kts | 289° |
| 2026-04-24 16:43 | 21.37779 | 58.40116 | 39896 ft | 446 kts | 289° |
| 2026-04-24 16:44 | 21.39590 | 58.33755 | 39893 ft | 446 kts | 289° |
| 2026-04-24 16:44 | 21.41399 | 58.27395 | 39893 ft | 445 kts | 288° |
| 2026-04-24 16:45 | 21.43203 | 58.21041 | 39894 ft | 445 kts | 288° |
| 2026-04-24 16:45 | 21.45003 | 58.14692 | 39882 ft | 444 kts | 288° |
| 2026-04-24 16:46 | 21.46786 | 58.08395 | 39883 ft | 444 kts | 288° |
| 2026-04-24 16:46 | 21.48578 | 58.02054 | 39883 ft | 444 kts | 288° |
| 2026-04-24 16:47 | 21.50365 | 57.95719 | 39890 ft | 443 kts | 288° |
| 2026-04-24 16:47 | 21.52151 | 57.89381 | 39888 ft | 443 kts | 288° |
| 2026-04-24 16:48 | 21.53935 | 57.83039 | 39883 ft | 444 kts | 288° |
| 2026-04-24 16:48 | 21.55715 | 57.76698 | 39881 ft | 443 kts | 288° |
| 2026-04-24 16:49 | 21.57493 | 57.70358 | 39885 ft | 443 kts | 288° |
| 2026-04-24 16:49 | 21.59266 | 57.64022 | 39891 ft | 442 kts | 288° |
| 2026-04-24 16:50 | 21.61031 | 57.57690 | 39883 ft | 442 kts | 288° |
| 2026-04-24 16:50 | 21.62793 | 57.51367 | 39887 ft | 442 kts | 288° |
| 2026-04-24 16:51 | 21.64552 | 57.45043 | 39889 ft | 442 kts | 288° |
| 2026-04-24 16:51 | 21.66308 | 57.38718 | 39887 ft | 442 kts | 288° |
| 2026-04-24 16:52 | 21.68062 | 57.32391 | 39889 ft | 441 kts | 288° |
| 2026-04-24 16:52 | 21.69801 | 57.26110 | 39887 ft | 441 kts | 288° |
| 2026-04-24 16:53 | 21.71548 | 57.19788 | 39885 ft | 441 kts | 288° |
| 2026-04-24 16:53 | 21.73290 | 57.13470 | 39886 ft | 440 kts | 288° |
| 2026-04-24 16:54 | 21.75026 | 57.07156 | 39883 ft | 439 kts | 288° |
| 2026-04-24 16:54 | 21.75356 | 57.05955 | 39882 ft | 439 kts | 288° |
| 2026-04-24 16:55 | 21.75845 | 57.04177 | 39879 ft | 439 kts | 288° |
| 2026-04-24 16:55 | 21.77571 | 56.97888 | 39879 ft | 438 kts | 288° |
| 2026-04-24 16:56 | 21.79294 | 56.91599 | 39885 ft | 438 kts | 288° |
| 2026-04-24 16:56 | 21.81001 | 56.85356 | 39884 ft | 438 kts | 288° |
| 2026-04-24 16:57 | 21.82717 | 56.79074 | 39893 ft | 437 kts | 288° |
| 2026-04-24 16:57 | 21.84427 | 56.72801 | 39879 ft | 437 kts | 288° |
| 2026-04-24 16:58 | 21.86133 | 56.66536 | 39878 ft | 436 kts | 287° |
| 2026-04-24 16:58 | 21.87835 | 56.60276 | 39882 ft | 435 kts | 287° |
| 2026-04-24 16:59 | 21.89532 | 56.54026 | 39880 ft | 435 kts | 287° |
| 2026-04-24 17:00 | 21.92072 | 56.44646 | 39883 ft | 435 kts | 287° |
| 2026-04-24 17:00 | 21.94604 | 56.35279 | 39876 ft | 434 kts | 287° |
| 2026-04-24 17:01 | 21.97118 | 56.25932 | 39865 ft | 429 kts | 287° |
| 2026-04-24 17:02 | 21.99604 | 56.16669 | 39868 ft | 430 kts | 287° |
| 2026-04-24 17:02 | 22.01264 | 56.10467 | 39870 ft | 431 kts | 287° |
| 2026-04-24 17:03 | 22.03743 | 56.01218 | 39868 ft | 430 kts | 287° |
| 2026-04-24 17:04 | 22.05400 | 55.95040 | 39865 ft | 428 kts | 287° |
| 2026-04-24 17:04 | 22.07876 | 55.85781 | 39865 ft | 429 kts | 286° |
| 2026-04-24 17:05 | 22.09527 | 55.79591 | 39870 ft | 430 kts | 286° |
| 2026-04-24 17:06 | 22.11951 | 55.70491 | 39865 ft | 430 kts | 286° |
| 2026-04-24 17:06 | 22.14420 | 55.61196 | 39867 ft | 430 kts | 286° |
| 2026-04-24 17:07 | 22.15838 | 55.54932 | 39855 ft | 431 kts | 278° |
| 2026-04-24 17:08 | 22.17101 | 55.42060 | 39862 ft | 431 kts | 277° |
| 2026-04-24 17:08 | 22.17717 | 55.35669 | 39862 ft | 431 kts | 277° |
| 2026-04-24 17:09 | 22.18962 | 55.22811 | 39856 ft | 430 kts | 277° |
| 2026-04-24 17:10 | 22.20194 | 55.09958 | 39853 ft | 431 kts | 277° |
| 2026-04-24 17:12 | 22.22627 | 54.84257 | 39855 ft | 430 kts | 277° |
| 2026-04-24 18:54 | 23.65287 | 42.30465 | 36018 ft | 421 kts | 282° |
| 2026-04-24 18:55 | 23.67940 | 42.21329 | 36015 ft | 421 kts | 282° |
| 2026-04-24 18:56 | 23.69703 | 42.15244 | 35999 ft | 421 kts | 282° |
| 2026-04-24 18:56 | 23.71466 | 42.09146 | 36004 ft | 421 kts | 282° |
| 2026-04-24 18:57 | 23.73227 | 42.03045 | 36011 ft | 421 kts | 282° |
| 2026-04-24 18:57 | 23.74986 | 41.96946 | 36010 ft | 421 kts | 282° |
| 2026-04-24 18:58 | 23.76747 | 41.90865 | 36007 ft | 420 kts | 282° |
| 2026-04-24 18:58 | 23.78500 | 41.84786 | 36005 ft | 419 kts | 282° |
| 2026-04-24 18:59 | 23.80252 | 41.78706 | 36002 ft | 420 kts | 282° |
| 2026-04-24 18:59 | 23.82002 | 41.72620 | 36001 ft | 420 kts | 282° |
| 2026-04-24 19:00 | 23.83750 | 41.66522 | 36002 ft | 421 kts | 282° |
| 2026-04-24 19:00 | 23.85489 | 41.60455 | 36001 ft | 421 kts | 282° |
| 2026-04-24 19:01 | 23.88822 | 41.48756 | 35995 ft | 420 kts | 281° |
| 2026-04-24 19:02 | 23.90259 | 41.43693 | 35993 ft | 420 kts | 281° |
| 2026-04-24 19:02 | 23.92280 | 41.36562 | 35991 ft | 420 kts | 281° |
| 2026-04-24 19:03 | 23.94008 | 41.30470 | 35896 ft | 415 kts | 281° |
| 2026-04-24 19:03 | 23.94853 | 41.27499 | 35075 ft | 417 kts | 281° |
| 2026-04-24 19:03 | 23.95725 | 41.24402 | 34116 ft | 424 kts | 281° |
| 2026-04-24 19:03 | 23.96600 | 41.21297 | 33031 ft | 431 kts | 281° |
| 2026-04-24 19:04 | 23.97481 | 41.18187 | 31986 ft | 437 kts | 281° |
| 2026-04-24 19:04 | 23.98379 | 41.15031 | 31417 ft | 432 kts | 281° |
| 2026-04-24 19:04 | 23.99263 | 41.11912 | 30867 ft | 421 kts | 281° |
| 2026-04-24 19:04 | 24.00103 | 41.08957 | 30329 ft | 398 kts | 280° |
| 2026-04-24 19:05 | 24.00908 | 41.06072 | 29767 ft | 396 kts | 280° |
| 2026-04-24 19:05 | 24.01710 | 41.03186 | 29206 ft | 403 kts | 280° |
| 2026-04-24 19:05 | 24.02552 | 41.00166 | 28671 ft | 427 kts | 281° |
| 2026-04-24 19:05 | 24.03439 | 40.97031 | 28107 ft | 430 kts | 281° |
| 2026-04-24 19:06 | 24.04325 | 40.93938 | 27631 ft | 421 kts | 281° |
| 2026-04-24 19:06 | 24.05180 | 40.90899 | 27126 ft | 415 kts | 281° |
| 2026-04-24 19:06 | 24.06015 | 40.87877 | 26610 ft | 416 kts | 281° |
| 2026-04-24 19:06 | 24.06861 | 40.84843 | 26079 ft | 417 kts | 281° |
| 2026-04-24 19:07 | 24.07711 | 40.81830 | 25549 ft | 411 kts | 282° |
| 2026-04-24 19:07 | 24.08548 | 40.78861 | 25023 ft | 405 kts | 281° |
| 2026-04-24 19:07 | 24.09090 | 40.76917 | 24678 ft | 402 kts | 281° |
| 2026-04-24 19:07 | 24.10171 | 40.73028 | 23990 ft | 395 kts | 282° |
| 2026-04-24 19:08 | 24.10970 | 40.70169 | 23478 ft | 390 kts | 282° |
| 2026-04-24 19:08 | 24.11760 | 40.67348 | 22901 ft | 384 kts | 282° |
| 2026-04-24 19:08 | 24.12518 | 40.64649 | 22365 ft | 355 kts | 281° |
| 2026-04-24 19:08 | 24.13226 | 40.62111 | 21888 ft | 345 kts | 281° |
| 2026-04-24 19:09 | 24.13913 | 40.59607 | 21439 ft | 341 kts | 281° |
| 2026-04-24 19:09 | 24.14599 | 40.57126 | 21012 ft | 340 kts | 281° |
| 2026-04-24 19:09 | 24.15288 | 40.54654 | 20585 ft | 340 kts | 281° |
| 2026-04-24 19:09 | 24.15974 | 40.52185 | 20230 ft | 337 kts | 280° |
| 2026-04-24 19:10 | 24.16379 | 40.49708 | 20035 ft | 326 kts | 270° |
| 2026-04-24 19:10 | 24.16656 | 40.47230 | 19978 ft | 330 kts | 272° |
| 2026-04-24 19:10 | 24.16978 | 40.44730 | 19983 ft | 332 kts | 272° |
| 2026-04-24 19:10 | 24.17292 | 40.42221 | 19984 ft | 332 kts | 272° |
| 2026-04-24 19:11 | 24.17685 | 40.39777 | 19935 ft | 322 kts | 279° |
| 2026-04-24 19:11 | 24.18499 | 40.37576 | 19945 ft | 312 kts | 290° |
| 2026-04-24 19:11 | 24.19681 | 40.35624 | 19956 ft | 303 kts | 299° |
| 2026-04-24 19:11 | 24.20930 | 40.33803 | 19959 ft | 296 kts | 298° |
| 2026-04-24 19:12 | 24.22160 | 40.31988 | 19959 ft | 298 kts | 298° |
| 2026-04-24 19:12 | 24.23408 | 40.30160 | 19960 ft | 301 kts | 298° |
| 2026-04-24 19:12 | 24.24671 | 40.28325 | 19958 ft | 302 kts | 298° |
| 2026-04-24 19:12 | 24.25935 | 40.26485 | 19958 ft | 302 kts | 298° |
| 2026-04-24 19:13 | 24.26786 | 40.25241 | 19957 ft | 302 kts | 298° |
| 2026-04-24 19:13 | 24.28455 | 40.22802 | 19962 ft | 302 kts | 298° |
| 2026-04-24 19:13 | 24.29715 | 40.20960 | 19956 ft | 302 kts | 298° |
| 2026-04-24 19:13 | 24.30975 | 40.19119 | 19957 ft | 302 kts | 298° |
| 2026-04-24 19:14 | 24.32235 | 40.17275 | 19955 ft | 302 kts | 298° |
| 2026-04-24 19:14 | 24.33494 | 40.15434 | 19959 ft | 302 kts | 298° |
| 2026-04-24 19:14 | 24.34755 | 40.13588 | 19954 ft | 302 kts | 298° |
| 2026-04-24 19:14 | 24.36014 | 40.11745 | 19957 ft | 302 kts | 298° |
| 2026-04-24 19:15 | 24.37273 | 40.09900 | 19953 ft | 302 kts | 298° |
| 2026-04-24 19:15 | 24.38532 | 40.08056 | 19930 ft | 303 kts | 298° |
| 2026-04-24 19:15 | 24.39804 | 40.06187 | 19627 ft | 308 kts | 298° |
| 2026-04-24 19:15 | 24.41086 | 40.04311 | 19276 ft | 306 kts | 298° |
| 2026-04-24 19:16 | 24.43616 | 40.00606 | 18386 ft | 297 kts | 297° |
| 2026-04-24 19:16 | 24.44834 | 39.98825 | 17859 ft | 284 kts | 297° |
| 2026-04-24 19:16 | 24.45993 | 39.97125 | 17306 ft | 274 kts | 297° |
| 2026-04-24 19:17 | 24.47127 | 39.95445 | 16786 ft | 277 kts | 297° |
| 2026-04-24 19:17 | 24.47890 | 39.94311 | 16450 ft | 280 kts | 297° |
| 2026-04-24 19:17 | 24.49061 | 39.92591 | 15962 ft | 282 kts | 298° |
| 2026-04-24 19:17 | 24.50261 | 39.90879 | 15504 ft | 285 kts | 301° |
| 2026-04-24 19:18 | 24.51861 | 39.89517 | 15152 ft | 297 kts | 323° |
| 2026-04-24 19:18 | 24.53739 | 39.88632 | 15047 ft | 289 kts | 330° |
| 2026-04-24 19:18 | 24.55586 | 39.87840 | 14910 ft | 282 kts | 330° |
| 2026-04-24 19:18 | 24.57434 | 39.87059 | 14459 ft | 286 kts | 331° |
| 2026-04-24 19:19 | 24.59286 | 39.86270 | 14121 ft | 285 kts | 331° |
| 2026-04-24 19:19 | 24.61147 | 39.85470 | 13643 ft | 294 kts | 331° |
| 2026-04-24 19:19 | 24.63100 | 39.84625 | 13288 ft | 309 kts | 332° |
| 2026-04-24 19:19 | 24.65128 | 39.83761 | 13083 ft | 315 kts | 333° |
| 2026-04-24 19:20 | 24.67166 | 39.82899 | 13029 ft | 308 kts | 333° |
| 2026-04-24 19:20 | 24.69145 | 39.82057 | 12759 ft | 301 kts | 332° |
| 2026-04-24 19:20 | 24.71046 | 39.81241 | 12239 ft | 285 kts | 333° |
| 2026-04-24 19:20 | 24.72841 | 39.80470 | 11713 ft | 270 kts | 333° |
| 2026-04-24 19:21 | 24.74556 | 39.79734 | 11190 ft | 261 kts | 333° |
| 2026-04-24 19:21 | 24.76258 | 39.78998 | 10791 ft | 261 kts | 334° |
| 2026-04-24 19:21 | 24.77946 | 39.78274 | 10337 ft | 258 kts | 334° |
| 2026-04-24 19:21 | 24.79566 | 39.77584 | 9875 ft | 242 kts | 335° |
| 2026-04-24 19:22 | 24.81094 | 39.76930 | 9370 ft | 231 kts | 335° |
| 2026-04-24 19:22 | 24.82572 | 39.76293 | 8854 ft | 225 kts | 335° |
| 2026-04-24 19:22 | 24.84119 | 39.75849 | 8299 ft | 235 kts | 348° |
| 2026-04-24 19:22 | 24.85732 | 39.75531 | 7847 ft | 237 kts | 348° |
| 2026-04-24 19:23 | 24.87357 | 39.75184 | 7423 ft | 238 kts | 348° |
| 2026-04-24 19:23 | 24.88927 | 39.74844 | 7138 ft | 223 kts | 348° |
| 2026-04-24 19:23 | 24.90438 | 39.74514 | 7027 ft | 221 kts | 347° |
| 2026-04-24 19:23 | 24.91769 | 39.73699 | 6935 ft | 220 kts | 315° |
| 2026-04-24 19:24 | 24.92410 | 39.72219 | 6866 ft | 217 kts | 273° |
| 2026-04-24 19:24 | 24.92008 | 39.70648 | 6858 ft | 218 kts | 235° |
| 2026-04-24 19:24 | 24.91042 | 39.69424 | 6981 ft | 209 kts | 225° |
| 2026-04-24 19:24 | 24.90228 | 39.68060 | 6992 ft | 212 kts | 234° |
| 2026-04-24 19:25 | 24.89052 | 39.67168 | 6865 ft | 208 kts | 194° |
| 2026-04-24 19:25 | 24.87602 | 39.67123 | 6710 ft | 207 kts | 176° |
| 2026-04-24 19:25 | 24.86168 | 39.67123 | 6564 ft | 206 kts | 181° |
| 2026-04-24 19:25 | 24.84759 | 39.66807 | 6412 ft | 209 kts | 194° |
| 2026-04-24 19:26 | 24.83390 | 39.66256 | 6318 ft | 210 kts | 198° |
| 2026-04-24 19:26 | 24.82030 | 39.65699 | 6314 ft | 207 kts | 197° |
| 2026-04-24 19:26 | 24.80614 | 39.65469 | 6213 ft | 207 kts | 176° |
| 2026-04-24 19:26 | 24.79231 | 39.65717 | 6251 ft | 199 kts | 167° |
| 2026-04-24 19:27 | 24.77842 | 39.66020 | 6013 ft | 213 kts | 167° |
| 2026-04-24 19:27 | 24.76421 | 39.66328 | 5714 ft | 201 kts | 167° |
| 2026-04-24 19:27 | 24.75065 | 39.66619 | 5464 ft | 199 kts | 167° |
| 2026-04-24 19:27 | 24.73709 | 39.66912 | 5208 ft | 197 kts | 166° |
| 2026-04-24 19:28 | 24.72426 | 39.67176 | 4949 ft | 179 kts | 166° |
| 2026-04-24 19:28 | 24.71231 | 39.67430 | 4759 ft | 174 kts | 166° |
| 2026-04-24 19:28 | 24.70072 | 39.67679 | 4525 ft | 165 kts | 165° |
| 2026-04-24 19:28 | 24.68960 | 39.67917 | 4302 ft | 162 kts | 165° |
| 2026-04-24 19:29 | 24.66742 | 39.68397 | 3909 ft | 163 kts | 165° |
| 2026-04-24 19:29 | 24.65622 | 39.68629 | 3704 ft | 163 kts | 167° |
| 2026-04-24 19:29 | 24.64507 | 39.68863 | 3504 ft | 164 kts | 165° |
| 2026-04-24 19:30 | 24.63382 | 39.69116 | 3344 ft | 164 kts | 166° |
| 2026-04-24 19:30 | 24.62262 | 39.69347 | 3097 ft | 165 kts | 167° |
| 2026-04-24 19:30 | 24.61118 | 39.69596 | 2889 ft | 171 kts | 169° |
| 2026-04-24 19:30 | 24.59948 | 39.69837 | 2644 ft | 170 kts | 170° |
| 2026-04-24 19:31 | 24.58796 | 39.70089 | 2422 ft | 170 kts | 169° |
| 2026-04-24 19:31 | 24.57638 | 39.70331 | 2195 ft | 168 kts | 169° |
| 2026-04-24 19:31 | 24.56542 | 39.70567 | 2125 ft | 148 kts | 168° |
| 2026-04-24 19:31 | 24.55737 | 39.70738 | 2117 ft | 84 kts | 172° |
| 2026-04-24 19:32 | 24.55278 | 39.70834 | 2115 ft | 61 kts | 169° |
| 2026-04-24 19:32 | 24.54955 | 39.70931 | 2118 ft | 32 kts | 148° |
| 2026-04-24 19:32 | 24.54839 | 39.71033 | 2116 ft | 13 kts | 128° |
| 2026-04-24 19:32 | 24.54827 | 39.71064 | 2115 ft | 1 kts | 104° |
| 2026-04-24 19:33 | 24.54827 | 39.71066 | 2115 ft | 0 kts | 104° |
| 2026-04-24 19:34 | 24.54827 | 39.71078 | 2114 ft | 4 kts | 84° |
| 2026-04-24 19:34 | 24.54853 | 39.71106 | 2113 ft | 6 kts | 17° |
| 2026-04-24 19:34 | 24.54912 | 39.71104 | 2112 ft | 11 kts | 349° |
| 2026-04-24 19:34 | 24.55008 | 39.71084 | 2112 ft | 17 kts | 349° |
| 2026-04-24 19:35 | 24.55139 | 39.71056 | 2112 ft | 21 kts | 349° |
| 2026-04-24 19:35 | 24.55227 | 39.71101 | 2111 ft | 6 kts | 73° |
| 2026-04-24 19:35 | 24.55227 | 39.71102 | 2111 ft | 0 kts | 73° |
| 2026-04-24 19:36 | 24.55231 | 39.71116 | 2111 ft | 5 kts | 74° |
| 2026-04-24 19:36 | 24.55247 | 39.71176 | 2111 ft | 10 kts | 65° |
| 2026-04-24 19:36 | 24.55315 | 39.71212 | 2110 ft | 13 kts | 358° |
| 2026-04-24 19:36 | 24.55419 | 39.71190 | 2110 ft | 17 kts | 348° |
| 2026-04-24 19:37 | 24.55539 | 39.71163 | 2110 ft | 18 kts | 349° |
| 2026-04-24 19:37 | 24.55666 | 39.71137 | 2110 ft | 19 kts | 348° |
| 2026-04-24 19:37 | 24.55728 | 39.71156 | 2110 ft | 6 kts | 67° |
| 2026-04-24 19:37 | 24.55740 | 39.71207 | 2110 ft | 6 kts | 77° |
| 2026-04-24 19:38 | 24.55742 | 39.71220 | 2110 ft | 0 kts | 78° |